createdAt,value
2019-03-01T00:01:22.759Z,57.07
2019-03-01T00:04:02.642Z,46.90
2019-03-01T00:06:46.058Z,45.87
2019-03-01T00:09:58.032Z,55.40
2019-03-01T00:12:57.034Z,57.93
2019-03-01T00:16:03.470Z,58.93
2019-03-01T00:19:32.568Z,60.93
2019-03-01T00:22:20.294Z,57.70
2019-03-01T00:25:33.151Z,54.70
2019-03-01T00:28:32.870Z,59.97
2019-03-01T00:31:41.285Z,71.00
2019-03-01T00:34:54.749Z,64.27
2019-03-01T00:37:55.816Z,65.23
2019-03-01T00:40:54.756Z,81.77
2019-03-01T00:43:53.919Z,68.00
2019-03-01T00:46:23.757Z,55.00
2019-03-01T00:48:54.622Z,63.33
2019-03-01T00:51:24.506Z,50.87
2019-03-01T00:53:54.358Z,52.23
2019-03-01T00:56:24.205Z,55.20
2019-03-01T00:58:54.196Z,51.57
2019-03-01T01:01:24.274Z,52.30
2019-03-01T01:03:54.289Z,54.07
2019-03-01T01:06:24.402Z,45.43
2019-03-01T01:08:54.268Z,51.93
2019-03-01T01:11:24.416Z,57.43
2019-03-01T01:13:54.654Z,57.87
2019-03-01T01:16:28.507Z,56.40
2019-03-01T01:18:56.129Z,54.67
2019-03-01T01:21:26.022Z,58.13
2019-03-01T01:23:56.148Z,61.80
2019-03-01T01:26:26.075Z,68.00
2019-03-01T01:28:56.054Z,55.83
2019-03-01T01:31:26.256Z,57.77
2019-03-01T01:33:56.227Z,76.10
2019-03-01T01:36:26.118Z,71.90
2019-03-01T01:38:56.286Z,85.43
2019-03-01T01:41:26.138Z,77.93
2019-03-01T01:43:56.145Z,55.57
2019-03-01T01:46:26.066Z,110.00
2019-03-01T01:48:57.869Z,68.50
2019-03-01T01:51:28.756Z,55.67
2019-03-01T01:53:58.660Z,67.70
2019-03-01T01:56:28.545Z,104.27
2019-03-01T01:58:58.440Z,81.90
2019-03-01T02:01:28.350Z,59.43
2019-03-01T02:03:58.266Z,87.53
2019-03-01T02:06:28.867Z,76.87
2019-03-01T02:08:58.720Z,176.57
2019-03-01T02:11:28.775Z,88.03
2019-03-01T02:13:58.766Z,84.20
2019-03-01T02:16:28.604Z,83.57
2019-03-01T02:18:58.759Z,67.90
2019-03-01T02:21:28.978Z,76.60
2019-03-01T02:23:59.161Z,103.63
2019-03-01T02:26:29.010Z,126.37
2019-03-01T02:28:59.146Z,86.50
2019-03-01T02:31:29.249Z,111.80
2019-03-01T02:33:59.281Z,93.17
2019-03-01T02:36:29.302Z,79.50
2019-03-01T02:38:59.501Z,98.87
2019-03-01T02:41:29.535Z,99.00
2019-03-01T02:43:59.875Z,144.83
2019-03-01T02:46:29.977Z,100.43
2019-03-01T02:49:00.137Z,99.97
2019-03-01T02:51:30.215Z,85.10
2019-03-01T02:54:00.532Z,105.77
2019-03-01T02:56:30.555Z,81.73
2019-03-01T02:59:00.573Z,77.33
2019-03-01T03:01:30.680Z,110.70
2019-03-01T03:04:00.510Z,102.80
2019-03-01T03:06:54.073Z,122.43
2019-03-01T03:09:24.238Z,105.90
2019-03-01T03:11:54.077Z,103.10
2019-03-01T03:14:24.061Z,83.53
2019-03-01T03:16:53.972Z,99.50
2019-03-01T03:19:23.803Z,97.40
2019-03-01T03:21:53.690Z,90.70
2019-03-01T03:24:23.755Z,90.33
2019-03-01T03:26:53.701Z,96.67
2019-03-01T03:29:23.994Z,105.63
2019-03-01T03:31:54.258Z,101.63
2019-03-01T03:34:24.165Z,102.17
2019-03-01T03:36:54.370Z,101.80
2019-03-01T03:39:24.617Z,107.40
2019-03-01T03:41:54.455Z,77.93
2019-03-01T03:44:24.720Z,72.20
2019-03-01T03:46:54.738Z,78.07
2019-03-01T03:49:24.840Z,73.87
2019-03-01T03:51:55.192Z,70.73
2019-03-01T03:54:25.302Z,54.43
2019-03-01T03:56:56.136Z,59.73
2019-03-01T03:59:26.357Z,94.83
2019-03-01T04:01:56.643Z,79.07
2019-03-01T04:04:26.555Z,73.27
2019-03-01T04:06:56.640Z,59.87
2019-03-01T04:09:26.833Z,61.77
2019-03-01T04:11:56.681Z,66.97
2019-03-01T04:14:26.744Z,69.17
2019-03-01T04:16:56.615Z,72.53
2019-03-01T04:19:26.775Z,66.53
2019-03-01T04:21:56.703Z,71.57
2019-03-01T04:24:26.900Z,69.93
2019-03-01T04:26:56.759Z,66.47
2019-03-01T04:29:26.843Z,59.40
2019-03-01T04:31:56.963Z,59.30
2019-03-01T04:34:27.096Z,78.27
2019-03-01T04:36:57.342Z,64.53
2019-03-01T04:39:27.210Z,58.20
2019-03-01T04:41:57.385Z,61.70
2019-03-01T04:44:27.454Z,69.47
2019-03-01T04:46:57.676Z,79.80
2019-03-01T04:49:27.606Z,73.83
2019-03-01T04:51:57.740Z,63.17
2019-03-01T04:54:27.986Z,69.27
2019-03-01T04:56:57.960Z,90.10
2019-03-01T04:59:29.022Z,78.60
2019-03-01T05:01:58.915Z,61.53
2019-03-01T05:04:28.932Z,66.70
2019-03-01T05:06:59.050Z,94.83
2019-03-01T05:09:28.888Z,96.43
2019-03-01T05:11:59.183Z,102.73
2019-03-01T05:14:29.348Z,112.33
2019-03-01T05:16:59.568Z,92.57
2019-03-01T05:19:29.413Z,76.07
2019-03-01T05:21:59.592Z,70.77
2019-03-01T05:24:29.824Z,112.63
2019-03-01T05:26:59.794Z,94.60
2019-03-01T05:29:30.069Z,157.73
2019-03-01T05:32:00.262Z,144.00
2019-03-01T05:34:30.105Z,103.30
2019-03-01T05:37:00.354Z,86.23
2019-03-01T05:39:30.491Z,238.47
2019-03-01T05:42:00.506Z,92.73
2019-03-01T05:44:30.614Z,120.50
2019-03-01T05:47:00.770Z,115.83
2019-03-01T05:49:30.844Z,197.00
2019-03-01T05:52:01.080Z,192.33
2019-03-01T05:54:31.249Z,104.97
2019-03-01T05:57:01.527Z,88.17
2019-03-01T05:59:31.882Z,115.43
2019-03-01T06:02:49.528Z,150.93
2019-03-01T06:05:29.537Z,160.03
2019-03-01T06:08:24.639Z,181.53
2019-03-01T06:11:19.413Z,143.23
2019-03-01T06:14:07.319Z,142.63
2019-03-01T06:17:01.760Z,176.90
2019-03-01T06:19:52.509Z,80.30
2019-03-01T06:22:57.293Z,83.23
2019-03-01T06:26:19.420Z,82.57
2019-03-01T06:29:42.173Z,96.87
2019-03-01T06:32:45.685Z,166.63
2019-03-01T06:35:44.679Z,109.33
2019-03-01T06:39:11.122Z,138.03
2019-03-01T06:42:31.712Z,148.77
2019-03-01T06:45:38.714Z,179.93
2019-03-01T06:48:10.400Z,149.80
2019-03-01T06:50:44.356Z,93.50
2019-03-01T06:53:14.685Z,94.10
2019-03-01T06:56:06.791Z,81.73
2019-03-01T06:58:46.243Z,88.23
2019-03-01T07:01:54.890Z,119.77
2019-03-01T07:04:29.738Z,107.80
2019-03-01T07:06:59.967Z,124.23
2019-03-01T07:09:30.266Z,154.57
2019-03-01T07:12:00.431Z,110.93
2019-03-01T07:14:30.646Z,105.43
2019-03-01T07:17:00.873Z,119.47
2019-03-01T07:19:31.080Z,121.30
2019-03-01T07:22:01.448Z,84.33
2019-03-01T07:24:31.610Z,85.20
2019-03-01T07:27:02.099Z,89.63
2019-03-01T07:29:32.307Z,91.93
2019-03-01T07:32:02.422Z,101.63
2019-03-01T07:34:32.562Z,106.90
2019-03-01T07:37:02.577Z,100.90
2019-03-01T07:39:32.794Z,120.07
2019-03-01T07:42:03.142Z,111.53
2019-03-01T07:44:33.401Z,115.77
2019-03-01T07:47:03.567Z,104.23
2019-03-01T07:49:33.900Z,125.20
2019-03-01T07:52:05.022Z,131.00
2019-03-01T07:54:35.951Z,121.27
2019-03-01T07:57:06.256Z,126.70
2019-03-01T07:59:38.065Z,121.17
2019-03-01T08:02:08.330Z,117.83
2019-03-01T08:04:39.533Z,118.37
2019-03-01T08:07:09.688Z,99.87
2019-03-01T08:09:41.364Z,85.23
2019-03-01T08:12:11.569Z,84.93
2019-03-01T08:14:41.737Z,76.40
2019-03-01T08:17:11.826Z,83.63
2019-03-01T08:19:41.970Z,81.33
2019-03-01T08:22:12.234Z,96.63
2019-03-01T08:24:46.293Z,75.73
2019-03-01T08:27:14.533Z,85.30
2019-03-01T08:29:44.678Z,85.00
2019-03-01T08:32:14.856Z,80.80
2019-03-01T08:34:45.141Z,92.33
2019-03-01T08:37:17.612Z,94.93
2019-03-01T08:39:47.059Z,87.70
2019-03-01T08:42:17.358Z,101.17
2019-03-01T08:44:47.673Z,98.07
2019-03-01T08:47:23.290Z,101.83
2019-03-01T08:49:49.739Z,98.63
2019-03-01T08:52:19.817Z,97.10
2019-03-01T08:54:49.822Z,98.60
2019-03-01T08:57:22.509Z,96.13
2019-03-01T08:59:54.219Z,91.07
2019-03-01T09:02:24.371Z,95.73
2019-03-01T09:04:54.665Z,95.40
2019-03-01T09:07:27.115Z,98.87
2019-03-01T09:09:58.056Z,96.53
2019-03-01T09:12:28.396Z,91.90
2019-03-01T09:14:58.522Z,102.67
2019-03-01T09:17:28.663Z,109.30
2019-03-01T09:20:00.190Z,103.60
2019-03-01T09:22:30.813Z,115.97
2019-03-01T09:25:02.656Z,109.87
2019-03-01T09:27:32.844Z,109.20
2019-03-01T09:30:04.949Z,113.20
2019-03-01T09:32:35.073Z,101.33
2019-03-01T09:35:24.043Z,103.33
2019-03-01T09:37:54.426Z,107.40
2019-03-01T09:40:29.873Z,108.47
2019-03-01T09:43:01.017Z,107.13
2019-03-01T09:45:40.103Z,109.00
2019-03-01T09:48:12.143Z,102.83
2019-03-01T09:50:46.392Z,105.37
2019-03-01T09:53:18.948Z,104.83
2019-03-01T09:55:49.043Z,101.60
2019-03-01T09:58:19.280Z,107.43
2019-03-01T10:00:56.397Z,101.53
2019-03-01T10:03:24.431Z,99.27
2019-03-01T10:05:54.705Z,108.63
2019-03-01T10:08:25.889Z,108.23
2019-03-01T10:10:56.442Z,110.77
2019-03-01T10:13:26.653Z,108.10
2019-03-01T10:15:56.855Z,111.50
2019-03-01T10:18:27.192Z,108.07
2019-03-01T10:20:57.105Z,105.30
2019-03-01T10:23:27.226Z,103.00
2019-03-01T10:25:57.181Z,100.37
2019-03-01T10:28:27.160Z,99.70
2019-03-01T10:30:57.298Z,98.13
2019-03-01T10:33:27.560Z,105.73
2019-03-01T10:35:57.449Z,94.13
2019-03-01T10:38:27.301Z,93.13
2019-03-01T10:40:57.549Z,102.57
2019-03-01T10:43:28.890Z,97.90
2019-03-01T10:45:59.317Z,95.17
2019-03-01T10:48:29.435Z,88.00
2019-03-01T10:50:59.309Z,84.30
2019-03-01T10:53:29.497Z,85.57
2019-03-01T10:55:59.487Z,85.83
2019-03-01T10:58:29.313Z,81.13
2019-03-01T11:00:59.154Z,85.23
2019-03-01T11:03:29.448Z,91.33
2019-03-01T11:06:00.092Z,84.57
2019-03-01T11:08:30.077Z,79.60
2019-03-01T11:11:01.307Z,77.77
2019-03-01T11:13:31.238Z,84.17
2019-03-01T11:16:01.090Z,82.50
2019-03-01T11:18:31.167Z,80.77
2019-03-01T11:21:01.047Z,74.67
2019-03-01T11:23:30.910Z,72.43
2019-03-01T11:26:00.909Z,75.30
2019-03-01T11:28:30.788Z,76.27
2019-03-01T11:31:00.989Z,74.97
2019-03-01T11:33:31.216Z,83.27
2019-03-01T11:36:01.410Z,77.40
2019-03-01T11:38:31.607Z,83.10
2019-03-01T11:41:01.914Z,79.57
2019-03-01T11:43:32.093Z,73.10
2019-03-01T11:46:02.311Z,78.87
2019-03-01T11:48:33.207Z,79.87
2019-03-01T11:51:03.529Z,74.27
2019-03-01T11:53:33.744Z,67.30
2019-03-01T11:56:04.107Z,69.97
2019-03-01T11:58:34.193Z,74.13
2019-03-01T12:01:04.399Z,73.50
2019-03-01T12:03:34.745Z,74.63
2019-03-01T12:06:06.002Z,68.93
2019-03-01T12:08:37.492Z,71.17
2019-03-01T12:11:08.888Z,67.00
2019-03-01T12:13:39.177Z,67.13
2019-03-01T12:16:09.457Z,62.87
2019-03-01T12:18:39.676Z,61.27
2019-03-01T12:21:10.162Z,61.73
2019-03-01T12:23:40.214Z,69.60
2019-03-01T12:26:10.146Z,60.30
2019-03-01T12:28:40.317Z,64.20
2019-03-01T12:31:10.597Z,59.80
2019-03-01T12:33:40.866Z,61.18
2019-03-01T12:36:10.903Z,63.10
2019-03-01T12:38:41.254Z,56.48
2019-03-01T12:41:11.516Z,60.90
2019-03-01T12:43:41.857Z,57.60
2019-03-01T12:46:12.083Z,59.05
2019-03-01T12:48:42.301Z,59.53
2019-03-01T12:51:12.550Z,58.80
2019-03-01T12:53:42.727Z,63.80
2019-03-01T12:56:12.954Z,66.63
2019-03-01T12:58:43.129Z,64.53
2019-03-01T13:01:13.394Z,61.55
2019-03-01T13:03:44.597Z,63.10
2019-03-01T13:06:14.975Z,63.58
2019-03-01T13:08:47.821Z,62.85
2019-03-01T13:11:17.913Z,59.03
2019-03-01T13:13:47.991Z,58.87
2019-03-01T13:16:18.258Z,62.60
2019-03-01T13:18:51.283Z,57.20
2019-03-01T13:21:20.396Z,61.95
2019-03-01T13:23:50.603Z,60.30
2019-03-01T13:26:20.846Z,66.67
2019-03-01T13:28:51.086Z,57.55
2019-03-01T13:31:21.254Z,56.63
2019-03-01T13:33:51.498Z,58.65
2019-03-01T13:36:21.756Z,54.75
2019-03-01T13:38:51.927Z,56.25
2019-03-01T13:41:22.200Z,63.42
2019-03-01T13:43:52.417Z,61.13
2019-03-01T13:46:22.657Z,57.40
2019-03-01T13:48:54.193Z,186.77
2019-03-01T13:51:25.041Z,56.13
2019-03-01T13:53:55.165Z,57.13
2019-03-01T13:56:25.418Z,55.35
2019-03-01T13:58:55.700Z,58.42
2019-03-01T14:01:27.080Z,56.75
2019-03-01T14:03:59.662Z,58.90
2019-03-01T14:06:29.628Z,54.53
2019-03-01T14:08:59.808Z,55.85
2019-03-01T14:11:29.978Z,53.75
2019-03-01T14:14:00.285Z,58.42
2019-03-01T14:16:30.606Z,56.37
2019-03-01T14:19:00.908Z,55.30
2019-03-01T14:21:33.110Z,52.15
2019-03-01T14:24:03.137Z,53.92
2019-03-01T14:26:33.303Z,55.67
2019-03-01T14:29:03.402Z,53.73
2019-03-01T14:31:33.623Z,57.03
2019-03-01T14:34:03.884Z,56.80
2019-03-01T14:36:34.140Z,54.27
2019-03-01T14:39:06.758Z,55.23
2019-03-01T14:41:37.183Z,57.50
2019-03-01T14:44:07.446Z,57.15
2019-03-01T14:46:37.641Z,55.50
2019-03-01T14:49:07.983Z,56.98
2019-03-01T14:51:38.217Z,52.17
2019-03-01T14:54:09.898Z,56.63
2019-03-01T14:56:50.286Z,54.05
2019-03-01T14:59:24.425Z,53.42
2019-03-01T15:02:24.217Z,53.15
2019-03-01T15:04:54.473Z,56.65
2019-03-01T15:07:27.839Z,52.43
2019-03-01T15:09:57.267Z,49.20
2019-03-01T15:12:28.415Z,53.68
2019-03-01T15:14:58.699Z,70.97
2019-03-01T15:17:29.000Z,70.83
2019-03-01T15:19:59.181Z,68.85
2019-03-01T15:22:29.418Z,72.75
2019-03-01T15:24:59.623Z,72.37
2019-03-01T15:27:29.803Z,73.47
2019-03-01T15:29:59.985Z,71.65
2019-03-01T15:32:31.185Z,73.30
2019-03-01T15:35:04.015Z,71.87
2019-03-01T15:37:35.047Z,74.20
2019-03-01T15:40:07.395Z,72.37
2019-03-01T15:42:37.806Z,73.40
2019-03-01T15:45:08.839Z,70.40
2019-03-01T15:47:39.112Z,72.25
2019-03-01T15:50:10.305Z,74.85
2019-03-01T15:52:40.569Z,81.67
2019-03-01T15:55:11.774Z,80.27
2019-03-01T15:57:43.197Z,78.77
2019-03-01T16:00:13.796Z,77.87
2019-03-01T16:02:44.256Z,82.27
2019-03-01T16:05:14.741Z,81.33
2019-03-01T16:07:45.027Z,76.73
2019-03-01T16:10:15.626Z,83.90
2019-03-01T16:12:45.920Z,77.93
2019-03-01T16:15:16.368Z,79.20
2019-03-01T16:17:46.833Z,80.47
2019-03-01T16:20:17.169Z,81.20
2019-03-01T16:22:47.481Z,83.43
2019-03-01T16:25:20.659Z,77.13
2019-03-01T16:27:50.739Z,83.03
2019-03-01T16:30:21.720Z,82.83
2019-03-01T16:32:52.354Z,81.97
2019-03-01T16:35:22.682Z,79.23
2019-03-01T16:37:57.768Z,84.57
2019-03-01T16:40:26.297Z,79.83
2019-03-01T16:42:56.526Z,82.93
2019-03-01T16:45:26.772Z,83.73
2019-03-01T16:47:57.097Z,77.57
2019-03-01T16:50:27.262Z,80.30
2019-03-01T16:52:57.333Z,76.33
2019-03-01T16:55:28.699Z,84.53
2019-03-01T16:58:06.865Z,80.93
2019-03-01T17:00:30.921Z,81.13
2019-03-01T17:03:01.227Z,81.43
2019-03-01T17:05:31.351Z,113.10
2019-03-01T17:08:05.643Z,88.70
2019-03-01T17:10:33.560Z,86.77
2019-03-01T17:13:03.810Z,86.27
2019-03-01T17:15:34.307Z,102.50
2019-03-01T17:18:04.605Z,114.30
2019-03-01T17:20:38.425Z,115.43
2019-03-01T17:23:07.019Z,98.27
2019-03-01T17:25:37.432Z,106.17
2019-03-01T17:28:07.707Z,90.87
2019-03-01T17:30:38.002Z,94.17
2019-03-01T17:33:09.677Z,90.00
2019-03-01T17:35:41.097Z,83.83
2019-03-01T17:38:12.127Z,78.23
2019-03-01T17:40:42.458Z,71.67
2019-03-01T17:43:13.088Z,75.30
2019-03-01T17:45:43.508Z,69.33
2019-03-01T17:48:14.394Z,68.63
2019-03-01T17:50:44.839Z,68.87
2019-03-01T17:53:16.166Z,71.97
2019-03-01T17:55:46.851Z,65.00
2019-03-01T17:58:17.261Z,66.57
2019-03-01T18:00:48.174Z,61.27
2019-03-01T18:03:19.380Z,64.97
2019-03-01T18:05:50.812Z,69.63
2019-03-01T18:08:22.017Z,76.87
2019-03-01T18:10:53.245Z,75.97
2019-03-01T18:13:24.636Z,73.27
2019-03-01T18:15:55.795Z,67.30
2019-03-01T18:18:27.459Z,66.33
2019-03-01T18:20:58.323Z,64.33
2019-03-01T18:23:29.458Z,75.60
2019-03-01T18:26:03.308Z,67.50
2019-03-01T18:28:33.823Z,65.67
2019-03-01T18:31:04.750Z,65.20
2019-03-01T18:33:36.022Z,65.10
2019-03-01T18:36:08.135Z,76.53
2019-03-01T18:38:39.672Z,72.03
2019-03-01T18:41:11.305Z,75.33
2019-03-01T18:43:45.795Z,86.37
2019-03-01T18:46:19.204Z,90.17
2019-03-01T18:48:49.045Z,112.60
2019-03-01T18:51:20.470Z,149.73
2019-03-01T18:53:52.055Z,126.10
2019-03-01T18:56:25.034Z,99.00
2019-03-01T18:58:56.510Z,98.10
2019-03-01T19:01:28.033Z,94.53
2019-03-01T19:03:59.554Z,99.43
2019-03-01T19:06:30.515Z,82.00
2019-03-01T19:09:02.097Z,66.27
2019-03-01T19:11:34.720Z,76.17
2019-03-01T19:14:06.268Z,71.73
2019-03-01T19:16:38.985Z,65.80
2019-03-01T19:19:10.368Z,63.13
2019-03-01T19:21:42.134Z,71.67
2019-03-01T19:24:13.549Z,64.23
2019-03-01T19:26:45.086Z,58.40
2019-03-01T19:29:17.694Z,63.57
2019-03-01T19:31:49.486Z,63.73
2019-03-01T19:34:20.605Z,73.43
2019-03-01T19:36:52.575Z,73.93
2019-03-01T19:39:24.808Z,73.30
2019-03-01T19:41:58.022Z,60.53
2019-03-01T19:44:29.870Z,76.93
2019-03-01T19:47:01.429Z,71.23
2019-03-01T19:49:33.323Z,77.03
2019-03-01T19:52:04.456Z,84.60
2019-03-01T19:54:36.518Z,72.43
2019-03-01T19:57:08.197Z,84.10
2019-03-01T19:59:39.213Z,69.27
2019-03-01T20:02:10.832Z,76.87
2019-03-01T20:04:42.150Z,71.67
2019-03-01T20:07:15.988Z,81.77
2019-03-01T20:09:46.788Z,85.73
2019-03-01T20:12:18.497Z,83.77
2019-03-01T20:14:50.269Z,91.00
2019-03-01T20:17:21.569Z,85.67
2019-03-01T20:19:53.565Z,83.47
2019-03-01T20:22:26.285Z,79.57
2019-03-01T20:25:01.120Z,81.77
2019-03-01T20:27:35.534Z,69.90
2019-03-01T20:30:06.795Z,76.47
2019-03-01T20:32:38.130Z,62.80
2019-03-01T20:35:12.816Z,78.63
2019-03-01T20:37:43.469Z,70.30
2019-03-01T20:40:14.933Z,88.60
2019-03-01T20:42:46.453Z,77.30
2019-03-01T20:45:26.023Z,82.43
2019-03-01T20:47:56.365Z,83.07
2019-03-01T20:50:27.588Z,73.53
2019-03-01T20:52:59.070Z,72.93
2019-03-01T20:55:33.115Z,77.80
2019-03-01T20:58:04.354Z,72.00
2019-03-01T21:00:35.594Z,80.33
2019-03-01T21:03:06.353Z,78.03
2019-03-01T21:05:37.573Z,88.03
2019-03-01T21:08:08.585Z,88.03
2019-03-01T21:10:39.489Z,82.37
2019-03-01T21:13:12.491Z,85.80
2019-03-01T21:15:42.730Z,77.27
2019-03-01T21:18:13.643Z,62.23
2019-03-01T21:20:44.258Z,73.60
2019-03-01T21:23:15.296Z,69.80
2019-03-01T21:25:46.307Z,86.73
2019-03-01T21:28:16.551Z,80.33
2019-03-01T21:30:47.073Z,76.87
2019-03-01T21:33:17.453Z,84.17
2019-03-01T21:35:47.747Z,73.67
2019-03-01T21:38:19.458Z,78.87
2019-03-01T21:40:49.760Z,84.23
2019-03-01T21:43:19.949Z,89.93
2019-03-01T21:45:50.093Z,98.23
2019-03-01T21:48:21.973Z,90.93
2019-03-01T21:50:52.322Z,97.83
2019-03-01T21:53:22.485Z,76.30
2019-03-01T21:55:52.701Z,115.10
2019-03-01T21:58:22.991Z,97.30
2019-03-01T22:00:53.135Z,95.33
2019-03-01T22:03:24.885Z,96.13
2019-03-01T22:05:55.125Z,80.07
2019-03-01T22:08:25.301Z,77.10
2019-03-01T22:10:55.583Z,86.13
2019-03-01T22:13:25.821Z,119.17
2019-03-01T22:15:57.570Z,123.93
2019-03-01T22:18:27.871Z,113.87
2019-03-01T22:20:57.988Z,92.87
2019-03-01T22:23:28.253Z,91.97
2019-03-01T22:25:58.723Z,103.07
2019-03-01T22:28:28.859Z,109.70
2019-03-01T22:31:00.236Z,132.73
2019-03-01T22:33:31.771Z,119.97
2019-03-01T22:36:01.771Z,113.03
2019-03-01T22:38:31.930Z,107.57
2019-03-01T22:41:03.957Z,108.23
2019-03-01T22:43:34.086Z,103.57
2019-03-01T22:46:04.338Z,88.90
2019-03-01T22:48:34.613Z,85.37
2019-03-01T22:51:04.741Z,108.33
2019-03-01T22:53:34.973Z,115.17
2019-03-01T22:56:05.274Z,99.60
2019-03-01T22:58:36.476Z,108.97
2019-03-01T23:01:17.446Z,107.47
2019-03-01T23:03:51.572Z,100.73
2019-03-01T23:06:22.049Z,93.47
2019-03-01T23:08:52.166Z,116.57
2019-03-01T23:11:22.414Z,89.57
2019-03-01T23:13:55.435Z,103.73
2019-03-01T23:16:24.413Z,96.27
2019-03-01T23:18:56.940Z,106.03
2019-03-01T23:21:26.613Z,101.43
2019-03-01T23:23:59.552Z,113.50
2019-03-01T23:26:28.553Z,118.83
2019-03-01T23:28:59.714Z,111.03
2019-03-01T23:31:29.937Z,110.57
2019-03-01T23:34:00.145Z,141.50
2019-03-01T23:36:30.387Z,118.63
2019-03-01T23:39:00.661Z,109.90
2019-03-01T23:41:30.824Z,144.07
2019-03-01T23:44:02.737Z,109.77
2019-03-01T23:46:32.856Z,113.90
2019-03-01T23:49:06.354Z,111.40
2019-03-01T23:51:35.034Z,99.77
2019-03-01T23:54:05.752Z,106.77
2019-03-01T23:56:37.124Z,101.10
2019-03-01T23:59:06.909Z,115.40
